Time;durP1;ratioP1;P1;durP2;ratioP2;P2;SDS_P1;SDS_P2;PMS_P1;PMS_P2;Temp;Humidity;BMP_temperature;BMP_pressure;BME280_temperature;BME280_humidity;BME280_pressure;Samples;Min_cycle;Max_cycle;Signal;HPM_P1;HPM_P2
2022/02/21 00:00:16;;;;;;;1.90;0.80;;;;;;;;;;5073351;28;20031;-76
2022/02/21 00:02:44;;;;;;;1.33;0.82;;;;;;;;;;5054462;28;20025;-76
2022/02/21 00:05:11;;;;;;;2.03;1.00;;;;;;;;;;5064905;28;20135;-76
2022/02/21 00:07:37;;;;;;;1.45;0.93;;;;;;;;;;5054936;28;20071;-75
2022/02/21 00:10:04;;;;;;;1.65;1.05;;;;;;;;;;5073083;28;20024;-75
2022/02/21 00:12:30;;;;;;;1.05;0.80;;;;;;;;;;5054944;28;20156;-75
2022/02/21 00:14:56;;;;;;;1.33;0.85;;;;;;;;;;5073154;28;20032;-76
2022/02/21 00:17:23;;;;;;;1.40;1.00;;;;;;;;;;5073000;28;20032;-75
2022/02/21 00:19:49;;;;;;;1.02;0.77;;;;;;;;;;5073099;28;20028;-75
2022/02/21 00:22:15;;;;;;;1.52;0.88;;;;;;;;;;5092808;28;20063;-75
2022/02/21 00:24:41;;;;;;;1.08;0.82;;;;;;;;;;5093209;28;20028;-75
2022/02/21 00:27:07;;;;;;;1.63;0.82;;;;;;;;;;5093266;28;20551;-75
2022/02/21 00:29:33;;;;;;;1.73;1.05;;;;;;;;;;5093335;28;20228;-75
2022/02/21 00:31:59;;;;;;;1.20;0.90;;;;;;;;;;5074316;28;20028;-76
2022/02/21 00:34:25;;;;;;;2.03;1.00;;;;;;;;;;5093567;28;20071;-76
2022/02/21 00:36:51;;;;;;;1.70;1.02;;;;;;;;;;5079574;28;20025;-76
2022/02/21 00:39:17;;;;;;;2.45;0.90;;;;;;;;;;5073268;28;20016;-75
2022/02/21 00:41:43;;;;;;;1.20;0.90;;;;;;;;;;5057644;28;20031;-75
2022/02/21 00:44:10;;;;;;;2.05;1.15;;;;;;;;;;5093038;28;20024;-75
2022/02/21 00:46:36;;;;;;;1.17;0.70;;;;;;;;;;5092721;28;20028;-76
2022/02/21 00:49:03;;;;;;;2.00;0.88;;;;;;;;;;5093210;28;20016;-75
2022/02/21 00:51:29;;;;;;;1.55;0.80;;;;;;;;;;5092415;28;20440;-75
2022/02/21 00:53:56;;;;;;;2.08;0.80;;;;;;;;;;5092907;28;20103;-75
2022/02/21 00:56:22;;;;;;;1.95;1.10;;;;;;;;;;5092907;28;20038;-75
2022/02/21 00:58:48;;;;;;;1.35;0.70;;;;;;;;;;5092549;28;20066;-75
2022/02/21 01:01:14;;;;;;;1.35;0.98;;;;;;;;;;5092872;28;20028;-75
2022/02/21 01:03:42;;;;;;;1.88;0.90;;;;;;;;;;5092078;28;20047;-75
2022/02/21 01:06:08;;;;;;;1.58;0.90;;;;;;;;;;5092489;28;20043;-75
2022/02/21 01:08:34;;;;;;;1.48;0.88;;;;;;;;;;5092314;28;20047;-75
2022/02/21 01:11:00;;;;;;;1.92;1.02;;;;;;;;;;5092684;28;20229;-75
2022/02/21 01:13:26;;;;;;;2.28;1.10;;;;;;;;;;5093126;28;20031;-75
2022/02/21 01:15:55;;;;;;;1.48;1.02;;;;;;;;;;5097289;28;20024;-75
2022/02/21 01:18:22;;;;;;;1.50;0.95;;;;;;;;;;5096442;28;20073;-75
2022/02/21 01:20:48;;;;;;;2.08;1.20;;;;;;;;;;5088263;28;20207;-75
2022/02/21 01:23:14;;;;;;;1.88;0.80;;;;;;;;;;5075969;28;20372;-75
2022/02/21 01:25:40;;;;;;;1.90;0.82;;;;;;;;;;5076534;28;20112;-75
2022/02/21 01:28:07;;;;;;;2.03;0.98;;;;;;;;;;5076143;28;20025;-75
2022/02/21 01:30:33;;;;;;;1.80;0.90;;;;;;;;;;5076398;28;20027;-75
2022/02/21 01:32:59;;;;;;;2.70;0.95;;;;;;;;;;5076264;28;20506;-75
2022/02/21 01:35:25;;;;;;;2.95;1.10;;;;;;;;;;5077633;28;20048;-75
2022/02/21 01:37:52;;;;;;;1.63;0.98;;;;;;;;;;5096316;28;20024;-75
2022/02/21 01:40:18;;;;;;;2.17;1.10;;;;;;;;;;5096577;28;20074;-75
2022/02/21 01:42:44;;;;;;;2.08;0.80;;;;;;;;;;5084289;28;20024;-76
2022/02/21 01:45:10;;;;;;;2.45;1.08;;;;;;;;;;5076141;28;20016;-75
2022/02/21 01:47:36;;;;;;;2.55;1.10;;;;;;;;;;5075743;28;20017;-75
2022/02/21 01:50:03;;;;;;;1.58;0.82;;;;;;;;;;5076046;28;20104;-75
2022/02/21 01:52:29;;;;;;;1.77;1.10;;;;;;;;;;5075401;28;20037;-76
2022/02/21 01:54:55;;;;;;;2.08;0.95;;;;;;;;;;5075833;28;20078;-75
2022/02/21 01:57:21;;;;;;;2.03;1.42;;;;;;;;;;5075495;28;20499;-75
2022/02/21 01:59:47;;;;;;;2.53;1.00;;;;;;;;;;5075714;28;20017;-75
2022/02/21 02:02:13;;;;;;;2.30;1.20;;;;;;;;;;5061179;28;20060;-75
2022/02/21 02:04:40;;;;;;;3.20;1.10;;;;;;;;;;5055339;28;20013;-75
2022/02/21 02:07:06;;;;;;;3.13;1.20;;;;;;;;;;5055486;28;20021;-75
2022/02/21 02:09:33;;;;;;;2.83;1.15;;;;;;;;;;5055688;28;20484;-75
2022/02/21 02:11:59;;;;;;;1.60;0.88;;;;;;;;;;5055098;28;20029;-76
2022/02/21 02:14:29;;;;;;;3.10;1.40;;;;;;;;;;5055221;28;20025;-75
2022/02/21 02:16:55;;;;;;;2.95;1.27;;;;;;;;;;5055642;28;20028;-75
2022/02/21 02:19:21;;;;;;;2.60;1.00;;;;;;;;;;5055523;28;20473;-75
2022/02/21 02:21:53;;;;;;;2.13;1.00;;;;;;;;;;5087064;28;20032;-75
2022/02/21 02:24:19;;;;;;;2.28;1.15;;;;;;;;;;5077168;28;20482;-75
2022/02/21 02:26:45;;;;;;;1.60;0.98;;;;;;;;;;5095164;28;20023;-75
2022/02/21 02:29:11;;;;;;;1.58;0.93;;;;;;;;;;5095248;28;20095;-75
2022/02/21 02:31:38;;;;;;;2.50;1.10;;;;;;;;;;5095008;28;20115;-75
2022/02/21 02:34:04;;;;;;;1.92;1.10;;;;;;;;;;5095137;28;20028;-75
2022/02/21 02:36:30;;;;;;;2.65;1.08;;;;;;;;;;5085104;28;20029;-75
2022/02/21 02:38:56;;;;;;;2.20;0.98;;;;;;;;;;5075082;28;20037;-75
2022/02/21 02:41:22;;;;;;;3.28;1.27;;;;;;;;;;5075421;28;20035;-75
2022/02/21 02:43:48;;;;;;;2.22;1.02;;;;;;;;;;5094483;28;20406;-75
2022/02/21 02:46:14;;;;;;;2.42;0.93;;;;;;;;;;5077157;28;20027;-75
2022/02/21 02:48:40;;;;;;;2.03;1.10;;;;;;;;;;5094907;28;20155;-75
2022/02/21 02:51:06;;;;;;;3.40;1.05;;;;;;;;;;5095208;28;20016;-75
2022/02/21 02:53:32;;;;;;;2.50;1.15;;;;;;;;;;5095156;28;20519;-75
2022/02/21 02:55:59;;;;;;;3.33;0.95;;;;;;;;;;5095098;28;20465;-75
2022/02/21 02:58:25;;;;;;;2.53;1.08;;;;;;;;;;5094609;28;20024;-76
2022/02/21 03:00:51;;;;;;;3.25;1.40;;;;;;;;;;5094993;28;20024;-75
2022/02/21 03:03:18;;;;;;;2.03;0.75;;;;;;;;;;5094450;28;20020;-75
2022/02/21 03:05:44;;;;;;;3.08;1.02;;;;;;;;;;5094639;28;20036;-75
2022/02/21 03:08:10;;;;;;;3.72;1.30;;;;;;;;;;5094842;28;20020;-75
2022/02/21 03:10:36;;;;;;;2.95;1.20;;;;;;;;;;5094493;28;20028;-75
2022/02/21 03:13:02;;;;;;;2.95;1.27;;;;;;;;;;5094807;28;20530;-75
2022/02/21 03:15:28;;;;;;;4.28;1.25;;;;;;;;;;5094368;28;20035;-75
2022/02/21 03:17:54;;;;;;;3.50;1.13;;;;;;;;;;5095167;28;20028;-75
2022/02/21 03:20:20;;;;;;;4.20;1.40;;;;;;;;;;5090236;28;20020;-76
2022/02/21 03:22:46;;;;;;;2.78;1.20;;;;;;;;;;5074132;28;20111;-75
2022/02/21 03:25:13;;;;;;;3.33;1.42;;;;;;;;;;5074086;28;20161;-75
2022/02/21 03:27:43;;;;;;;3.28;1.27;;;;;;;;;;5074541;28;20086;-75
2022/02/21 03:30:10;;;;;;;2.00;0.90;;;;;;;;;;5073839;28;20505;-75
2022/02/21 03:32:37;;;;;;;3.17;1.00;;;;;;;;;;5074220;28;20406;-75
2022/02/21 03:35:03;;;;;;;3.08;1.20;;;;;;;;;;5073689;28;20101;-75
2022/02/21 03:37:29;;;;;;;2.28;1.05;;;;;;;;;;5092204;28;20543;-75
2022/02/21 03:39:55;;;;;;;3.67;1.05;;;;;;;;;;5093956;28;20084;-75
2022/02/21 03:42:21;;;;;;;2.85;1.02;;;;;;;;;;5084902;28;20437;-75
2022/02/21 03:44:47;;;;;;;2.22;1.05;;;;;;;;;;5073554;28;20021;-76
2022/02/21 03:47:13;;;;;;;2.08;1.10;;;;;;;;;;5073738;28;20510;-75
2022/02/21 03:49:39;;;;;;;2.78;1.23;;;;;;;;;;5073648;28;20048;-75
2022/02/21 03:52:06;;;;;;;2.00;0.95;;;;;;;;;;5073270;28;20111;-76
2022/02/21 03:54:32;;;;;;;3.17;1.02;;;;;;;;;;5073560;28;20021;-75
2022/02/21 03:56:58;;;;;;;2.58;1.08;;;;;;;;;;5073241;28;20016;-76
2022/02/21 03:59:24;;;;;;;3.20;1.08;;;;;;;;;;5055345;28;20128;-76
2022/02/21 04:01:51;;;;;;;3.00;1.23;;;;;;;;;;5072559;28;20028;-75
2022/02/21 04:04:17;;;;;;;2.53;1.20;;;;;;;;;;5073503;28;20028;-76
2022/02/21 04:06:43;;;;;;;2.25;0.90;;;;;;;;;;5073223;28;20115;-76
2022/02/21 04:09:09;;;;;;;2.63;0.95;;;;;;;;;;5073724;28;20048;-76
2022/02/21 04:11:35;;;;;;;2.25;1.20;;;;;;;;;;5072455;28;20036;-75
2022/02/21 04:14:01;;;;;;;2.40;0.95;;;;;;;;;;5073242;28;20518;-76
2022/02/21 04:16:32;;;;;;;3.22;0.82;;;;;;;;;;5073144;28;20483;-75
2022/02/21 04:18:58;;;;;;;3.15;1.10;;;;;;;;;;5073166;28;20033;-75
2022/02/21 04:21:25;;;;;;;2.58;1.00;;;;;;;;;;5085747;28;20028;-76
2022/02/21 04:23:51;;;;;;;2.85;1.10;;;;;;;;;;5074810;28;20031;-75
2022/02/21 04:26:17;;;;;;;4.07;1.27;;;;;;;;;;5093101;28;20028;-75
2022/02/21 04:28:43;;;;;;;3.15;1.20;;;;;;;;;;5093292;28;20035;-76
2022/02/21 04:31:11;;;;;;;4.07;1.33;;;;;;;;;;5093200;28;20028;-75
2022/02/21 04:33:37;;;;;;;2.50;1.23;;;;;;;;;;5092955;28;20050;-75
2022/02/21 04:36:03;;;;;;;2.90;1.00;;;;;;;;;;5086466;28;20036;-76
2022/02/21 04:38:29;;;;;;;2.92;1.05;;;;;;;;;;5072694;28;20016;-75
2022/02/21 04:40:55;;;;;;;2.10;0.93;;;;;;;;;;5072781;28;20029;-75
2022/02/21 04:43:22;;;;;;;2.15;1.15;;;;;;;;;;5090081;28;20051;-76
2022/02/21 04:45:54;;;;;;;2.75;0.80;;;;;;;;;;5092863;28;20474;-75
2022/02/21 04:48:21;;;;;;;1.85;0.70;;;;;;;;;;5092594;28;20073;-75
2022/02/21 04:50:47;;;;;;;2.40;0.85;;;;;;;;;;5092974;28;20371;-76
2022/02/21 04:53:13;;;;;;;3.65;1.02;;;;;;;;;;5093067;28;20023;-76
2022/02/21 04:55:39;;;;;;;3.53;1.20;;;;;;;;;;5092772;28;20032;-75
2022/02/21 04:58:06;;;;;;;2.38;0.77;;;;;;;;;;5092505;28;20035;-76
2022/02/21 05:00:32;;;;;;;2.08;1.00;;;;;;;;;;5074471;28;20498;-75
2022/02/21 05:02:58;;;;;;;2.42;0.90;;;;;;;;;;5092853;28;20028;-75
2022/02/21 05:05:24;;;;;;;2.63;0.88;;;;;;;;;;5092776;28;20055;-75
2022/02/21 05:07:50;;;;;;;2.42;0.80;;;;;;;;;;5084291;28;20430;-75
2022/02/21 05:10:16;;;;;;;3.00;1.05;;;;;;;;;;5065820;28;20129;-76
2022/02/21 05:12:43;;;;;;;2.38;0.82;;;;;;;;;;5078005;28;20099;-75
2022/02/21 05:15:10;;;;;;;3.63;1.00;;;;;;;;;;5072407;28;20032;-76
2022/02/21 05:17:36;;;;;;;1.83;0.70;;;;;;;;;;5091443;28;20028;-76
2022/02/21 05:20:02;;;;;;;2.03;0.85;;;;;;;;;;5092676;28;20072;-75
2022/02/21 05:22:29;;;;;;;1.85;0.77;;;;;;;;;;5073962;28;20021;-75
2022/02/21 05:24:55;;;;;;;2.80;0.98;;;;;;;;;;5065273;28;20100;-75
2022/02/21 05:27:21;;;;;;;1.63;0.80;;;;;;;;;;5071964;28;20029;-75
2022/02/21 05:29:47;;;;;;;3.15;0.80;;;;;;;;;;5072383;28;20120;-76
2022/02/21 05:32:13;;;;;;;2.67;1.00;;;;;;;;;;5072005;28;20438;-75
2022/02/21 05:34:40;;;;;;;3.00;1.10;;;;;;;;;;5072100;28;20399;-75
2022/02/21 05:37:06;;;;;;;3.42;1.23;;;;;;;;;;5086977;28;20107;-76
2022/02/21 05:39:33;;;;;;;3.45;0.93;;;;;;;;;;5092209;28;20074;-75
2022/02/21 05:41:59;;;;;;;1.88;0.90;;;;;;;;;;5088468;28;20387;-75
2022/02/21 05:44:25;;;;;;;2.78;0.70;;;;;;;;;;5074117;28;20031;-76
2022/02/21 05:46:52;;;;;;;1.17;0.60;;;;;;;;;;5092241;28;20020;-75
2022/02/21 05:49:18;;;;;;;1.63;0.80;;;;;;;;;;5092165;28;20021;-75
2022/02/21 05:51:44;;;;;;;1.88;0.90;;;;;;;;;;5091695;28;20039;-76
2022/02/21 05:54:10;;;;;;;2.55;0.77;;;;;;;;;;5092190;28;20028;-75
2022/02/21 05:56:36;;;;;;;1.58;0.50;;;;;;;;;;5074143;28;20032;-76
2022/02/21 05:59:03;;;;;;;1.65;0.57;;;;;;;;;;5092505;28;20461;-75
2022/02/21 06:01:29;;;;;;;2.20;0.60;;;;;;;;;;5094955;28;20391;-75
2022/02/21 06:03:55;;;;;;;2.03;0.65;;;;;;;;;;5095372;28;20027;-75
2022/02/21 06:06:22;;;;;;;1.38;0.50;;;;;;;;;;5095548;28;20388;-75
2022/02/21 06:08:48;;;;;;;1.48;0.70;;;;;;;;;;5095148;28;20024;-75
2022/02/21 06:11:14;;;;;;;1.38;0.70;;;;;;;;;;5095570;28;20038;-75
2022/02/21 06:13:40;;;;;;;1.73;0.60;;;;;;;;;;5094927;28;20498;-76
2022/02/21 06:16:06;;;;;;;1.23;0.50;;;;;;;;;;5086302;28;20467;-76
2022/02/21 06:18:32;;;;;;;1.45;0.63;;;;;;;;;;5074757;28;20028;-75
2022/02/21 06:20:58;;;;;;;2.13;0.80;;;;;;;;;;5075137;28;20028;-76
2022/02/21 06:23:24;;;;;;;1.42;0.60;;;;;;;;;;5074571;28;20053;-76
2022/02/21 06:25:51;;;;;;;1.35;0.70;;;;;;;;;;5075423;28;20032;-75
2022/02/21 06:28:17;;;;;;;1.50;0.63;;;;;;;;;;5074737;28;20052;-76
2022/02/21 06:30:43;;;;;;;1.42;0.80;;;;;;;;;;5075095;28;20074;-76
2022/02/21 06:33:09;;;;;;;2.38;0.82;;;;;;;;;;5074846;28;20052;-75
2022/02/21 06:35:35;;;;;;;2.30;1.08;;;;;;;;;;5077146;28;20039;-75
2022/02/21 06:38:04;;;;;;;1.77;0.70;;;;;;;;;;5095417;28;20054;-75
2022/02/21 06:40:30;;;;;;;2.25;0.60;;;;;;;;;;5094776;28;20021;-76
2022/02/21 06:42:57;;;;;;;2.58;0.90;;;;;;;;;;5081017;28;20051;-75
2022/02/21 06:45:24;;;;;;;2.75;0.90;;;;;;;;;;5074570;28;20016;-75
2022/02/21 06:47:50;;;;;;;2.38;0.95;;;;;;;;;;5056769;28;20042;-75
2022/02/21 06:50:17;;;;;;;2.10;0.80;;;;;;;;;;5074285;28;20024;-75
2022/02/21 06:52:43;;;;;;;3.55;1.10;;;;;;;;;;5074897;28;20028;-75
2022/02/21 06:55:12;;;;;;;1.70;0.82;;;;;;;;;;5074334;28;20028;-75
2022/02/21 06:57:38;;;;;;;1.73;0.90;;;;;;;;;;5074618;28;20044;-75
2022/02/21 07:00:05;;;;;;;2.35;0.85;;;;;;;;;;5074084;28;20036;-75
2022/02/21 07:02:31;;;;;;;2.70;0.95;;;;;;;;;;5074631;28;20508;-75
2022/02/21 07:04:57;;;;;;;2.55;1.02;;;;;;;;;;5055990;28;20052;-75
2022/02/21 07:07:23;;;;;;;3.17;0.98;;;;;;;;;;5074607;28;20016;-75
2022/02/21 07:09:49;;;;;;;2.08;0.80;;;;;;;;;;5074067;28;20021;-75
2022/02/21 07:12:17;;;;;;;2.88;0.90;;;;;;;;;;5055527;28;20053;-75
2022/02/21 07:14:43;;;;;;;2.35;0.60;;;;;;;;;;5073918;28;20027;-74
2022/02/21 07:17:09;;;;;;;2.47;1.00;;;;;;;;;;5091773;28;20023;-74
2022/02/21 07:19:35;;;;;;;2.65;1.00;;;;;;;;;;5094243;28;20028;-74
2022/02/21 07:22:02;;;;;;;1.83;0.52;;;;;;;;;;5093913;28;20028;-74
2022/02/21 07:24:28;;;;;;;1.88;0.90;;;;;;;;;;5094144;28;20093;-74
2022/02/21 07:26:55;;;;;;;1.90;0.88;;;;;;;;;;5094480;28;20032;-74
2022/02/21 07:29:22;;;;;;;4.22;1.25;;;;;;;;;;5094076;28;20024;-74
2022/02/21 07:31:49;;;;;;;6.72;1.88;;;;;;;;;;5093782;28;20028;-74
2022/02/21 07:34:15;;;;;;;3.45;1.65;;;;;;;;;;5093923;28;20056;-74
2022/02/21 07:36:41;;;;;;;2.67;0.90;;;;;;;;;;5082431;28;20031;-74
2022/02/21 07:39:07;;;;;;;2.75;1.20;;;;;;;;;;5073801;28;20108;-74
2022/02/21 07:41:33;;;;;;;2.53;1.20;;;;;;;;;;5075411;28;20382;-74
2022/02/21 07:43:59;;;;;;;3.53;1.17;;;;;;;;;;5093813;28;20024;-74
2022/02/21 07:46:26;;;;;;;6.25;1.92;;;;;;;;;;5093893;28;20024;-74
2022/02/21 07:48:53;;;;;;;4.32;1.30;;;;;;;;;;5093577;28;20027;-74
2022/02/21 07:51:19;;;;;;;5.75;1.40;;;;;;;;;;5093666;28;20028;-74
2022/02/21 07:53:45;;;;;;;5.60;1.50;;;;;;;;;;5093767;28;20428;-74
2022/02/21 07:56:11;;;;;;;2.13;0.90;;;;;;;;;;5094022;28;20036;-74
2022/02/21 07:58:37;;;;;;;3.55;1.50;;;;;;;;;;5093761;28;20044;-74
2022/02/21 08:01:03;;;;;;;4.82;1.38;;;;;;;;;;5082153;28;20035;-75
2022/02/21 08:03:29;;;;;;;3.08;0.77;;;;;;;;;;5051733;28;20124;-74
2022/02/21 08:05:57;;;;;;;2.17;1.10;;;;;;;;;;5082391;28;20420;-72
2022/02/21 08:08:23;;;;;;;4.38;1.00;;;;;;;;;;5053878;28;20430;-75
2022/02/21 08:10:49;;;;;;;2.88;1.00;;;;;;;;;;5034324;28;20062;-76
2022/02/21 08:13:15;;;;;;;1.67;0.77;;;;;;;;;;5056932;28;20377;-75
2022/02/21 08:15:41;;;;;;;5.53;1.05;;;;;;;;;;5053554;28;20040;-75
2022/02/21 08:18:07;;;;;;;4.47;0.93;;;;;;;;;;5051559;28;20712;-75
2022/02/21 08:20:34;;;;;;;4.53;1.00;;;;;;;;;;5043968;28;20111;-75
2022/02/21 08:23:00;;;;;;;2.45;0.90;;;;;;;;;;5051727;28;20048;-76
2022/02/21 08:25:26;;;;;;;3.42;0.60;;;;;;;;;;5046523;28;20584;-75
2022/02/21 08:27:52;;;;;;;3.38;0.80;;;;;;;;;;5063881;28;20017;-76
2022/02/21 08:30:20;;;;;;;4.45;1.05;;;;;;;;;;5067761;28;20529;-76
2022/02/21 08:32:47;;;;;;;3.85;1.20;;;;;;;;;;5071877;28;20115;-75
2022/02/21 08:35:14;;;;;;;9.10;3.60;;;;;;;;;;5064554;28;20055;-76
2022/02/21 08:37:40;;;;;;;4.10;1.50;;;;;;;;;;5077919;28;20028;-75
2022/02/21 08:40:08;;;;;;;3.05;1.30;;;;;;;;;;5061249;28;20033;-76
2022/02/21 08:42:34;;;;;;;4.47;1.00;;;;;;;;;;5056447;28;20116;-76
2022/02/21 08:45:00;;;;;;;5.13;1.27;;;;;;;;;;5074768;28;20028;-75
2022/02/21 08:47:27;;;;;;;5.65;1.83;;;;;;;;;;5084947;28;20020;-75
2022/02/21 08:49:53;;;;;;;6.68;1.05;;;;;;;;;;5065477;28;20025;-76
2022/02/21 08:52:19;;;;;;;11.77;1.67;;;;;;;;;;5059508;28;20108;-74
2022/02/21 08:54:45;;;;;;;4.72;1.02;;;;;;;;;;5057326;28;20021;-75
2022/02/21 08:57:11;;;;;;;9.73;1.60;;;;;;;;;;5048418;28;20025;-75
2022/02/21 08:59:38;;;;;;;6.40;1.70;;;;;;;;;;5078254;28;20027;-76
2022/02/21 09:02:04;;;;;;;47.95;24.52;;;;;;;;;;5064662;28;20123;-76
2022/02/21 09:04:30;;;;;;;12.85;2.22;;;;;;;;;;5074156;28;20085;-75
2022/02/21 09:06:56;;;;;;;10.13;1.85;;;;;;;;;;5067509;28;20264;-75
2022/02/21 09:09:25;;;;;;;7.65;1.75;;;;;;;;;;5066304;28;20016;-75
2022/02/21 09:11:51;;;;;;;8.85;1.25;;;;;;;;;;5028921;28;20025;-75
2022/02/21 09:14:18;;;;;;;22.80;9.07;;;;;;;;;;5063598;28;20048;-75
2022/02/21 09:16:45;;;;;;;9.13;1.73;;;;;;;;;;5065422;28;20051;-75
2022/02/21 09:19:12;;;;;;;8.30;4.30;;;;;;;;;;5045821;28;20108;-75
2022/02/21 09:21:38;;;;;;;8.75;1.85;;;;;;;;;;5049594;28;20024;-76
2022/02/21 09:24:04;;;;;;;16.13;1.90;;;;;;;;;;5057394;28;20024;-75
2022/02/21 09:26:32;;;;;;;5.80;1.70;;;;;;;;;;5063091;28;20238;-73
2022/02/21 09:28:59;;;;;;;8.85;1.80;;;;;;;;;;5063935;28;20021;-75
2022/02/21 09:31:25;;;;;;;5.63;1.42;;;;;;;;;;5051861;28;20021;-73
2022/02/21 09:33:51;;;;;;;11.95;1.77;;;;;;;;;;5053699;28;20119;-73
2022/02/21 09:36:18;;;;;;;9.93;1.67;;;;;;;;;;5069672;28;20039;-75
2022/02/21 09:38:44;;;;;;;6.72;1.35;;;;;;;;;;5072585;28;20461;-75
2022/02/21 09:41:10;;;;;;;4.32;1.65;;;;;;;;;;5052513;28;20032;-74
2022/02/21 09:43:36;;;;;;;10.98;1.50;;;;;;;;;;5084812;28;20107;-75
2022/02/21 09:46:07;;;;;;;5.28;1.52;;;;;;;;;;5071681;28;20051;-77
2022/02/21 09:48:35;;;;;;;9.65;1.50;;;;;;;;;;5068994;28;20028;-76
2022/02/21 09:51:01;;;;;;;7.22;1.27;;;;;;;;;;5069567;28;20024;-76
2022/02/21 09:53:28;;;;;;;7.68;1.40;;;;;;;;;;5066829;28;20037;-75
2022/02/21 09:55:55;;;;;;;5.60;1.80;;;;;;;;;;5061630;28;20032;-73
2022/02/21 09:58:21;;;;;;;6.38;1.60;;;;;;;;;;5031141;28;20037;-75
2022/02/21 10:00:49;;;;;;;6.13;2.90;;;;;;;;;;5049625;28;20024;-75
2022/02/21 10:03:18;;;;;;;10.20;1.67;;;;;;;;;;5049658;28;20044;-77
2022/02/21 10:05:48;;;;;;;5.93;1.88;;;;;;;;;;5060092;28;20499;-75
2022/02/21 10:08:15;;;;;;;8.18;1.40;;;;;;;;;;5078204;28;20039;-75
2022/02/21 10:10:41;;;;;;;5.25;1.38;;;;;;;;;;5072793;28;20067;-76
2022/02/21 10:13:08;;;;;;;8.57;1.77;;;;;;;;;;5071436;28;20029;-74
2022/02/21 10:15:37;;;;;;;6.63;1.80;;;;;;;;;;5068479;28;20095;-75
2022/02/21 10:18:10;;;;;;;5.55;1.70;;;;;;;;;;5074660;28;20040;-74
2022/02/21 10:20:57;;;;;;;3.83;1.30;;;;;;;;;;5041338;28;20028;-76
2022/02/21 10:23:23;;;;;;;8.75;1.77;;;;;;;;;;5065249;28;20059;-75
2022/02/21 10:26:00;;;;;;;4.90;1.88;;;;;;;;;;5066913;28;20904;-72
2022/02/21 10:28:35;;;;;;;10.00;1.50;;;;;;;;;;5051312;28;20032;-72
2022/02/21 10:31:07;;;;;;;8.93;1.90;;;;;;;;;;5049168;28;20029;-72
2022/02/21 10:33:33;;;;;;;5.93;1.50;;;;;;;;;;5050863;28;20032;-72
2022/02/21 10:36:00;;;;;;;4.72;1.70;;;;;;;;;;5060221;28;20024;-72
2022/02/21 10:38:39;;;;;;;9.68;2.25;;;;;;;;;;5088802;28;20036;-72
2022/02/21 10:41:07;;;;;;;10.85;2.40;;;;;;;;;;5059862;28;20649;-72
2022/02/21 10:43:34;;;;;;;6.55;1.90;;;;;;;;;;5056799;28;20037;-72
2022/02/21 10:46:12;;;;;;;7.75;1.67;;;;;;;;;;5057868;28;20016;-72
2022/02/21 10:48:42;;;;;;;11.55;2.75;;;;;;;;;;5051282;28;20403;-73
2022/02/21 10:51:08;;;;;;;9.05;1.75;;;;;;;;;;5062457;28;20047;-73
2022/02/21 10:53:44;;;;;;;7.75;3.05;;;;;;;;;;5052494;28;20037;-73
2022/02/21 10:56:11;;;;;;;12.40;3.03;;;;;;;;;;5048112;28;20032;-73
2022/02/21 10:58:38;;;;;;;11.73;1.63;;;;;;;;;;5061199;28;20024;-73
2022/02/21 11:01:10;;;;;;;11.82;2.22;;;;;;;;;;5057377;28;20658;-72
2022/02/21 11:03:36;;;;;;;11.20;3.17;;;;;;;;;;5063050;28;20699;-72
2022/02/21 11:06:04;;;;;;;11.65;2.63;;;;;;;;;;5056293;28;20068;-73
2022/02/21 11:08:31;;;;;;;9.05;2.00;;;;;;;;;;5057411;28;20419;-73
2022/02/21 11:11:04;;;;;;;7.47;2.10;;;;;;;;;;5062378;28;20051;-73
2022/02/21 11:13:33;;;;;;;7.95;2.10;;;;;;;;;;5056760;28;20033;-72
2022/02/21 11:15:59;;;;;;;9.70;2.42;;;;;;;;;;5038604;28;20105;-73
2022/02/21 11:18:25;;;;;;;13.43;2.25;;;;;;;;;;5072967;28;20029;-72
2022/02/21 11:20:52;;;;;;;8.30;2.53;;;;;;;;;;5056516;28;20048;-72
2022/02/21 11:23:18;;;;;;;7.53;2.00;;;;;;;;;;5044995;28;20050;-72
2022/02/21 11:26:02;;;;;;;10.00;2.80;;;;;;;;;;5043762;28;20115;-72
2022/02/21 11:28:36;;;;;;;11.15;2.05;;;;;;;;;;5059057;28;20028;-72
2022/02/21 11:31:05;;;;;;;6.93;1.88;;;;;;;;;;5063316;28;20029;-72
2022/02/21 11:33:32;;;;;;;11.35;2.00;;;;;;;;;;5047517;28;20025;-72
2022/02/21 11:36:04;;;;;;;16.10;2.63;;;;;;;;;;5058706;28;20045;-72
2022/02/21 11:38:30;;;;;;;7.88;2.42;;;;;;;;;;5046412;28;20081;-72
2022/02/21 11:40:59;;;;;;;6.30;2.03;;;;;;;;;;5049517;28;20492;-72
2022/02/21 11:43:29;;;;;;;9.05;2.35;;;;;;;;;;5059378;28;20021;-72
2022/02/21 11:45:56;;;;;;;17.15;4.63;;;;;;;;;;5059512;28;20066;-72
2022/02/21 11:48:22;;;;;;;9.82;2.40;;;;;;;;;;5060412;28;20511;-72
2022/02/21 11:50:48;;;;;;;10.05;2.40;;;;;;;;;;5067141;28;20051;-73
2022/02/21 11:53:25;;;;;;;10.43;2.80;;;;;;;;;;5062534;28;20491;-73
2022/02/21 11:55:52;;;;;;;9.25;2.45;;;;;;;;;;5052112;28;20396;-73
2022/02/21 11:58:26;;;;;;;11.35;2.80;;;;;;;;;;5045881;28;20056;-72
2022/02/21 12:00:52;;;;;;;7.88;2.60;;;;;;;;;;5039872;28;20599;-76
2022/02/21 12:03:18;;;;;;;11.80;2.80;;;;;;;;;;5063915;28;20475;-76
2022/02/21 12:05:45;;;;;;;9.40;2.40;;;;;;;;;;5058015;28;20102;-76
2022/02/21 12:08:21;;;;;;;11.57;3.35;;;;;;;;;;5046656;28;20486;-76
2022/02/21 12:11:03;;;;;;;8.32;2.35;;;;;;;;;;5062860;28;20103;-76
2022/02/21 12:13:29;;;;;;;8.45;2.78;;;;;;;;;;5056687;28;20037;-76
2022/02/21 12:16:14;;;;;;;14.88;3.47;;;;;;;;;;5062102;28;20028;-76
2022/02/21 12:18:45;;;;;;;16.05;3.50;;;;;;;;;;5049130;28;20039;-78
2022/02/21 12:21:18;;;;;;;11.00;3.30;;;;;;;;;;5049822;28;20033;-77
2022/02/21 12:23:53;;;;;;;12.32;2.42;;;;;;;;;;5048524;28;20058;-77
2022/02/21 12:26:20;;;;;;;7.80;2.85;;;;;;;;;;5061634;28;20028;-77
2022/02/21 12:29:06;;;;;;;14.45;3.42;;;;;;;;;;5049828;28;20073;-76
2022/02/21 12:31:33;;;;;;;10.48;3.17;;;;;;;;;;5054459;28;20016;-76
2022/02/21 12:34:00;;;;;;;11.75;3.10;;;;;;;;;;5045948;28;20024;-77
2022/02/21 12:36:33;;;;;;;12.50;3.65;;;;;;;;;;5063695;28;20029;-75
2022/02/21 12:38:59;;;;;;;11.70;3.83;;;;;;;;;;5058455;28;20024;-76
2022/02/21 12:41:36;;;;;;;8.07;2.90;;;;;;;;;;5056741;28;20541;-75
2022/02/21 12:44:07;;;;;;;8.90;3.25;;;;;;;;;;5077504;28;20024;-75
2022/02/21 12:46:35;;;;;;;13.45;3.10;;;;;;;;;;5063300;28;20429;-76
2022/02/21 12:49:02;;;;;;;10.32;3.10;;;;;;;;;;5027551;28;20608;-77
2022/02/21 12:51:30;;;;;;;9.90;3.50;;;;;;;;;;5031467;28;20052;-76
2022/02/21 12:54:01;;;;;;;13.20;3.50;;;;;;;;;;5059582;28;20545;-76
2022/02/21 12:56:30;;;;;;;9.35;3.15;;;;;;;;;;5067286;28;20036;-77
2022/02/21 12:58:56;;;;;;;10.95;4.15;;;;;;;;;;5048223;28;20032;-77
2022/02/21 13:01:23;;;;;;;14.98;4.03;;;;;;;;;;5057561;28;20035;-76
2022/02/21 13:03:52;;;;;;;17.80;4.47;;;;;;;;;;5048258;28;20151;-77
2022/02/21 13:06:18;;;;;;;21.40;8.60;;;;;;;;;;5062934;28;20051;-77
2022/02/21 13:08:44;;;;;;;14.30;4.38;;;;;;;;;;5065188;28;20032;-77
2022/02/21 13:11:10;;;;;;;14.48;3.67;;;;;;;;;;5086426;28;20036;-76
2022/02/21 13:13:45;;;;;;;15.48;4.10;;;;;;;;;;5066129;28;20043;-77
2022/02/21 13:16:12;;;;;;;14.82;4.68;;;;;;;;;;5070002;28;20411;-76
2022/02/21 13:18:51;;;;;;;13.82;4.07;;;;;;;;;;5049214;28;20032;-77
2022/02/21 13:21:28;;;;;;;11.65;4.05;;;;;;;;;;5066643;28;20029;-77
2022/02/21 13:23:55;;;;;;;10.27;4.32;;;;;;;;;;5061700;28;20539;-77
2022/02/21 13:26:21;;;;;;;13.70;3.63;;;;;;;;;;5067979;28;20025;-77
2022/02/21 13:28:48;;;;;;;14.23;4.97;;;;;;;;;;5071936;28;20694;-75
2022/02/21 13:31:14;;;;;;;15.20;6.13;;;;;;;;;;5064263;28;20119;-74
2022/02/21 13:33:44;;;;;;;11.05;3.38;;;;;;;;;;5064618;28;20028;-77
2022/02/21 13:36:10;;;;;;;8.85;3.65;;;;;;;;;;5074300;28;20039;-75
2022/02/21 13:38:36;;;;;;;14.75;7.28;;;;;;;;;;5086606;28;20070;-76
2022/02/21 13:41:02;;;;;;;11.65;3.53;;;;;;;;;;5066493;28;20035;-75
2022/02/21 13:43:28;;;;;;;11.95;3.40;;;;;;;;;;5066675;28;20842;-74
2022/02/21 13:45:55;;;;;;;10.23;3.30;;;;;;;;;;5044674;28;20060;-73
2022/02/21 13:48:26;;;;;;;10.15;3.33;;;;;;;;;;5045728;28;20025;-75
2022/02/21 13:50:55;;;;;;;8.90;3.40;;;;;;;;;;5055978;28;20020;-74
2022/02/21 13:53:27;;;;;;;7.70;3.08;;;;;;;;;;5060464;28;20048;-75
2022/02/21 13:55:55;;;;;;;12.18;4.78;;;;;;;;;;5052528;28;20024;-74
2022/02/21 13:58:32;;;;;;;9.93;3.45;;;;;;;;;;5069527;28;20434;-74
2022/02/21 14:01:11;;;;;;;8.95;3.13;;;;;;;;;;5054851;28;20172;-75
2022/02/21 14:03:57;;;;;;;7.47;3.00;;;;;;;;;;5050957;28;20503;-74
2022/02/21 14:06:26;;;;;;;11.35;3.20;;;;;;;;;;5059169;28;20457;-75
2022/02/21 14:08:54;;;;;;;10.00;3.22;;;;;;;;;;5057854;28;20028;-76
2022/02/21 14:11:41;;;;;;;13.82;3.55;;;;;;;;;;5051482;28;20032;-74
2022/02/21 14:14:09;;;;;;;10.27;3.10;;;;;;;;;;5051647;28;20207;-74
2022/02/21 14:16:36;;;;;;;8.63;3.17;;;;;;;;;;5043934;28;20028;-74
2022/02/21 14:19:03;;;;;;;11.57;2.78;;;;;;;;;;5056499;28;20025;-75
2022/02/21 14:21:30;;;;;;;9.45;3.00;;;;;;;;;;5061000;28;20082;-76
2022/02/21 14:23:56;;;;;;;8.18;2.60;;;;;;;;;;5057369;28;20027;-75
2022/02/21 14:26:22;;;;;;;6.47;2.50;;;;;;;;;;5055289;28;20021;-74
2022/02/21 14:28:49;;;;;;;9.77;3.45;;;;;;;;;;5060907;28;20023;-75
2022/02/21 14:31:16;;;;;;;9.63;3.10;;;;;;;;;;5064667;28;20161;-75
2022/02/21 14:33:42;;;;;;;11.95;3.50;;;;;;;;;;5059210;28;20136;-75
2022/02/21 14:36:08;;;;;;;7.88;2.50;;;;;;;;;;5062996;28;20032;-75
2022/02/21 14:38:34;;;;;;;12.50;3.13;;;;;;;;;;5063739;28;20071;-75
2022/02/21 14:41:01;;;;;;;7.40;2.22;;;;;;;;;;5059175;28;20522;-74